Terminal Aerodrome Forecast
Issued by NWS Cleveland, OH

Home | Current Version | Previous Version | Graphics & Text | Print | Product List | Glossary Off
Versions: 1 2 3 4 5 6 7 8 9 10 11 12 13 14 15 16 17 18 19 20 21 22

000
FTUS41 KCLE 301736
TAFCAK
TAF
KCAK 301736Z 3018/0118 24008KT P6SM VCSH BKN020
     FM302100 22010KT P6SM -SHRA VCTS SCT023 OVC050CB
      TEMPO 3021/0101 3SM TSRA OVC015CB
     FM010100 21007KT P6SM VCTS SCT100CB BKN250
     FM010600 22004KT P6SM OVC050
     FM010900 23006KT 4SM BR OVC007
     FM011500 25009KT P6SM BKN025=

USA.gov is the U.S. government's official web portal to all federal, state and local government web resources and services.